Time;durP1;ratioP1;P1;durP2;ratioP2;P2;SDS_P1;SDS_P2;PMS_P1;PMS_P2;Temp;Humidity;BMP_temperature;BMP_pressure;BME280_temperature;BME280_humidity;BME280_pressure;Samples;Min_cycle;Max_cycle;Signal;HPM_P1;HPM_P2
2022/04/05 00:01:20;;;;;;;9.93;7.85;;;5.20;80.60;;;4.03;62.03;96759.78;5070228;28;21023;-78
2022/04/05 00:03:46;;;;;;;11.80;8.02;;;5.20;80.40;;;4.03;61.78;96757.19;5070529;28;20395;-78
2022/04/05 00:06:12;;;;;;;12.07;8.30;;;5.20;80.20;;;4.03;61.98;96752.72;5070423;28;20812;-79
2022/04/05 00:08:38;;;;;;;11.03;8.03;;;5.20;81.10;;;4.05;62.27;96763.78;5069238;28;20443;-79
2022/04/05 00:11:05;;;;;;;12.75;8.43;;;5.30;80.40;;;4.04;61.93;96759.56;5068647;28;20773;-79
2022/04/05 00:13:31;;;;;;;15.02;7.88;;;5.20;80.00;;;4.03;61.91;96768.44;5070494;28;20406;-76
2022/04/05 00:15:57;;;;;;;12.32;8.10;;;5.20;80.20;;;4.00;62.25;96758.41;5070074;28;20412;-78
2022/04/05 00:18:23;;;;;;;11.98;7.68;;;5.20;80.40;;;4.04;62.04;96766.63;5070727;28;20410;-78
2022/04/05 00:20:48;;;;;;;12.43;8.20;;;5.20;80.40;;;4.02;62.24;96751.13;5070318;28;20749;-78
2022/04/05 00:23:15;;;;;;;13.65;8.85;;;5.20;80.50;;;4.02;62.23;96756.38;5071047;28;20395;-77
2022/04/05 00:25:41;;;;;;;10.20;7.63;;;5.20;81.40;;;4.05;62.32;96753.31;5070993;28;20406;-78
2022/04/05 00:28:08;;;;;;;10.65;7.65;;;5.20;80.80;;;4.01;62.29;96765.25;5070871;28;20494;-78
2022/04/05 00:30:34;;;;;;;12.65;7.70;;;5.20;80.70;;;4.00;62.55;96753.16;5070570;28;20904;-78
2022/04/05 00:33:00;;;;;;;11.87;7.63;;;5.20;81.00;;;4.00;62.54;96755.00;5071824;28;20399;-78
2022/04/05 00:35:26;;;;;;;14.25;8.02;;;5.20;81.10;;;4.00;62.66;96758.41;5073076;28;20396;-78
2022/04/05 00:37:52;;;;;;;11.43;7.87;;;5.20;81.20;;;4.02;62.87;96764.22;5088366;28;20396;-78
2022/04/05 00:40:18;;;;;;;12.07;8.57;;;5.20;81.40;;;4.05;62.32;96758.56;5071861;28;20402;-79
2022/04/05 00:42:44;;;;;;;10.88;7.60;;;5.30;81.10;;;4.05;62.38;96768.22;5074083;28;20402;-79
2022/04/05 00:45:11;;;;;;;11.82;7.78;;;5.20;80.90;;;4.05;62.22;96770.84;5071448;28;20498;-78
2022/04/05 00:47:37;;;;;;;13.63;7.88;;;5.30;80.80;;;4.03;62.33;96763.22;5070198;28;20395;-78
2022/04/05 00:50:05;;;;;;;12.52;8.13;;;5.20;80.80;;;4.03;62.41;96762.41;5069823;28;20447;-78
2022/04/05 00:52:31;;;;;;;10.82;7.70;;;5.20;81.00;;;4.07;62.90;96764.34;5069946;28;20403;-79
2022/04/05 00:54:59;;;;;;;14.90;8.02;;;5.20;81.40;;;4.10;62.08;96758.66;5072383;28;20885;-79
2022/04/05 00:57:27;;;;;;;13.77;7.82;;;5.30;80.90;;;4.09;62.33;96758.88;5073885;28;20480;-78
2022/04/05 00:59:57;;;;;;;12.98;7.95;;;5.30;80.90;;;4.11;62.14;96764.72;5073874;28;20445;-78
2022/04/05 01:02:28;;;;;;;11.88;8.07;;;5.30;80.60;;;4.10;62.22;96756.06;5073515;28;20400;-77
2022/04/05 01:04:54;;;;;;;13.60;7.97;;;5.30;80.70;;;4.11;62.44;96756.84;5073946;28;20399;-77
2022/04/05 01:07:23;;;;;;;12.30;8.02;;;5.30;80.80;;;4.14;62.07;96744.09;5073813;28;20410;-78
2022/04/05 01:09:55;;;;;;;12.32;8.02;;;5.30;80.60;;;4.14;62.34;96735.44;5073551;28;20407;-77
2022/04/05 01:12:22;;;;;;;11.48;7.85;;;5.30;80.90;;;4.11;62.25;96747.19;5073439;28;20486;-77
2022/04/05 01:14:49;;;;;;;10.50;7.53;;;5.30;80.80;;;4.14;62.27;96725.75;5073686;28;20462;-77
2022/04/05 01:17:16;;;;;;;14.70;8.43;;;5.30;80.90;;;4.14;62.40;96725.75;5073620;28;20406;-77
2022/04/05 01:19:44;;;;;;;15.30;8.50;;;5.30;81.00;;;4.16;62.85;96723.72;5089179;28;20422;-77
2022/04/05 01:22:10;;;;;;;13.05;8.57;;;5.30;81.60;;;4.15;63.81;96726.56;5073170;28;20402;-77
2022/04/05 01:24:37;;;;;;;12.30;8.30;;;5.30;82.90;;;4.10;64.08;96727.25;5073571;28;20958;-77
2022/04/05 01:27:06;;;;;;;13.93;8.75;;;5.30;83.70;;;4.06;64.52;96728.69;5073316;28;20403;-77
2022/04/05 01:29:33;;;;;;;11.07;7.93;;;5.30;84.10;;;4.06;64.53;96739.16;5073286;28;20546;-78
2022/04/05 01:32:02;;;;;;;11.48;7.70;;;5.20;84.30;;;4.07;64.92;96729.50;5072977;28;20449;-78
2022/04/05 01:34:30;;;;;;;13.45;8.10;;;5.30;85.10;;;4.04;64.68;96722.91;5073392;28;20404;-78
2022/04/05 01:36:59;;;;;;;11.30;7.77;;;5.20;84.80;;;4.04;64.52;96728.16;5073361;28;20415;-79
2022/04/05 01:39:27;;;;;;;11.90;8.15;;;5.20;84.40;;;4.07;63.81;96732.13;5073184;28;20399;-78
2022/04/05 01:41:57;;;;;;;10.77;7.45;;;5.20;83.40;;;4.08;64.40;96729.28;5072899;28;20419;-79
2022/04/05 01:44:25;;;;;;;13.23;7.87;;;5.30;84.10;;;4.10;63.12;96715.97;5088822;28;20468;-78
2022/04/05 01:46:51;;;;;;;11.30;7.63;;;5.30;82.70;;;4.11;63.47;96722.81;5073007;28;20474;-78
2022/04/05 01:49:18;;;;;;;11.82;8.07;;;5.30;82.90;;;4.15;62.46;96722.13;5072949;28;20422;-78
2022/04/05 01:51:45;;;;;;;10.98;7.38;;;5.30;81.90;;;4.17;63.12;96706.19;5072556;28;20403;-78
2022/04/05 01:54:14;;;;;;;11.70;7.70;;;5.40;82.60;;;4.18;62.96;96707.78;5072946;28;20396;-78
2022/04/05 01:56:43;;;;;;;13.05;7.47;;;5.40;82.20;;;4.20;63.35;96710.97;5071501;28;20411;-78
2022/04/05 01:59:12;;;;;;;13.27;8.55;;;5.40;83.60;;;4.19;65.16;96712.00;5072814;28;20453;-78
2022/04/05 02:01:39;;;;;;;10.73;8.00;;;5.40;85.30;;;4.15;66.30;96716.06;5072439;28;20399;-78
2022/04/05 02:04:05;;;;;;;12.67;8.30;;;5.30;86.20;;;4.05;67.54;96706.19;5072779;28;20881;-78
2022/04/05 02:06:31;;;;;;;15.20;8.98;;;5.20;88.20;;;4.00;67.92;96697.38;5071687;28;20399;-78
2022/04/05 02:08:57;;;;;;;17.08;9.38;;;5.20;89.60;;;3.93;68.66;96707.97;5072582;28;20414;-76
2022/04/05 02:11:23;;;;;;;12.30;8.50;;;5.10;90.20;;;3.83;68.59;96695.41;5072278;28;20408;-77
2022/04/05 02:13:49;;;;;;;13.35;8.93;;;5.00;90.30;;;3.80;69.12;96682.78;5072662;28;20408;-78
2022/04/05 02:16:16;;;;;;;15.47;8.70;;;5.00;90.90;;;3.78;70.03;96691.88;5072550;28;20766;-79
2022/04/05 02:18:42;;;;;;;13.63;8.20;;;5.00;91.30;;;3.75;69.18;96690.53;5072631;28;20761;-78
2022/04/05 02:21:08;;;;;;;12.50;8.57;;;4.90;91.00;;;3.78;68.45;96678.81;5072018;28;20404;-78
2022/04/05 02:23:34;;;;;;;16.35;8.70;;;4.90;90.90;;;3.78;68.68;96684.03;5072492;28;20403;-79
2022/04/05 02:26:01;;;;;;;11.88;8.45;;;5.00;90.70;;;3.80;68.67;96682.00;5072349;28;20396;-79
2022/04/05 02:28:27;;;;;;;13.77;8.35;;;5.00;90.90;;;3.80;69.01;96671.53;5072456;28;20449;-78
2022/04/05 02:30:53;;;;;;;13.95;9.27;;;5.00;90.90;;;3.76;70.60;96678.25;5071618;28;20808;-79
2022/04/05 02:33:20;;;;;;;15.52;9.63;;;5.00;91.90;;;3.65;73.00;96666.72;5072316;28;20885;-78
2022/04/05 02:35:47;;;;;;;14.32;10.15;;;4.80;93.60;;;3.57;74.01;96667.03;5072151;28;20423;-79
2022/04/05 02:38:13;;;;;;;13.98;9.88;;;4.80;94.30;;;3.47;74.37;96680.66;5072184;28;20428;-77
2022/04/05 02:40:38;;;;;;;16.63;9.45;;;4.70;94.50;;;3.45;75.28;96674.06;5071624;28;20924;-78
2022/04/05 02:43:05;;;;;;;11.80;9.13;;;4.60;95.00;;;3.40;75.23;96664.25;5071992;28;20445;-78
2022/04/05 02:45:31;;;;;;;13.68;9.30;;;4.60;94.90;;;3.41;73.65;96667.69;5071971;28;20453;-78
2022/04/05 02:47:57;;;;;;;14.57;9.43;;;4.60;94.20;;;3.39;72.79;96662.66;5071944;28;20451;-78
2022/04/05 02:50:26;;;;;;;13.52;9.35;;;4.60;93.70;;;3.43;72.31;96668.25;5071315;28;20424;-79
2022/04/05 02:52:52;;;;;;;15.63;9.32;;;4.60;93.90;;;3.43;73.45;96666.44;5071916;28;20404;-79
2022/04/05 02:55:18;;;;;;;14.73;9.73;;;4.60;94.30;;;3.43;74.10;96655.19;5071711;28;20399;-79
2022/04/05 02:57:45;;;;;;;14.73;8.95;;;4.60;94.70;;;3.39;74.07;96654.81;5071824;28;20396;-78
2022/04/05 03:00:17;;;;;;;12.85;9.77;;;4.60;94.80;;;3.37;74.40;96666.53;5071197;28;20388;-78
2022/04/05 03:02:45;;;;;;;14.50;9.30;;;4.60;95.00;;;3.38;73.58;96662.91;5071681;28;20438;-79
2022/04/05 03:05:13;;;;;;;14.30;9.30;;;4.60;94.90;;;3.38;73.16;96663.69;5071654;28;20506;-79
2022/04/05 03:07:43;;;;;;;13.20;9.25;;;4.60;94.50;;;3.40;73.92;96668.69;5071686;28;20399;-79
2022/04/05 03:10:11;;;;;;;11.38;8.85;;;4.60;94.90;;;3.39;73.97;96677.56;5071177;28;20554;-79
2022/04/05 03:12:38;;;;;;;15.25;9.13;;;4.60;94.80;;;3.39;74.19;96673.13;5071529;28;20404;-79
2022/04/05 03:15:08;;;;;;;13.98;9.23;;;4.60;95.20;;;3.43;74.22;96670.88;5071555;28;20504;-79
2022/04/05 03:17:34;;;;;;;12.53;9.13;;;4.60;95.10;;;3.43;74.54;96676.09;5071370;28;20479;-78
2022/04/05 03:20:01;;;;;;;12.05;9.15;;;4.60;95.40;;;3.43;74.13;96668.25;5071378;28;20402;-78
2022/04/05 03:22:27;;;;;;;11.95;8.90;;;4.60;95.10;;;3.46;73.96;96678.25;5071083;28;20408;-78
2022/04/05 03:24:54;;;;;;;15.52;9.65;;;4.60;95.10;;;3.46;74.84;96671.22;5071503;28;20436;-78
2022/04/05 03:27:20;;;;;;;13.68;9.00;;;4.70;95.50;;;3.54;73.38;96687.63;5071425;28;20400;-78
2022/04/05 03:29:46;;;;;;;14.63;9.23;;;4.70;94.80;;;3.55;72.78;96689.22;5071218;28;20427;-78
2022/04/05 03:32:12;;;;;;;13.45;8.50;;;4.70;94.50;;;3.57;72.09;96687.19;5071050;28;20487;-78
2022/04/05 03:34:38;;;;;;;12.80;8.80;;;4.80;94.10;;;3.57;73.36;96685.38;5071227;28;20518;-78
2022/04/05 03:37:04;;;;;;;17.63;9.05;;;4.80;94.60;;;3.61;72.43;96685.72;5071190;28;20414;-78
2022/04/05 03:39:30;;;;;;;15.77;8.75;;;4.80;94.00;;;3.63;72.10;96688.91;5071025;28;20433;-78
2022/04/05 03:41:58;;;;;;;13.27;9.13;;;4.80;94.00;;;3.63;71.95;96694.94;5070825;28;20411;-78
2022/04/05 03:44:24;;;;;;;12.87;8.53;;;4.80;93.70;;;3.62;71.70;96689.91;5071133;28;20407;-78
2022/04/05 03:46:51;;;;;;;10.70;8.23;;;4.80;93.40;;;3.63;71.24;96694.94;5071076;28;20395;-77
2022/04/05 03:49:17;;;;;;;11.15;8.05;;;4.80;93.20;;;3.66;71.63;96693.69;5086767;28;20755;-79
2022/04/05 03:51:43;;;;;;;12.18;8.13;;;4.80;93.30;;;3.67;71.75;96687.44;5070882;28;20407;-78
2022/04/05 03:54:09;;;;;;;12.30;8.27;;;4.90;93.60;;;3.68;72.07;96695.06;5071361;28;20403;-78
2022/04/05 03:56:35;;;;;;;14.23;8.63;;;4.90;93.70;;;3.73;70.77;96710.91;5080380;22;20431;-82
2022/04/05 03:59:03;;;;;;;12.10;8.77;;;4.90;93.10;;;3.73;70.34;96702.25;5074150;28;20420;-81
2022/04/05 04:01:29;;;;;;;13.23;8.30;;;4.90;92.70;;;3.75;71.43;96692.34;5076458;28;20432;-81
2022/04/05 04:03:55;;;;;;;10.88;7.65;;;4.90;93.30;;;3.74;71.36;96699.41;5084826;28;20741;-82
2022/04/05 04:06:21;;;;;;;10.77;7.85;;;5.00;93.20;;;3.73;70.85;96694.41;5065053;28;20757;-81
2022/04/05 04:08:47;;;;;;;13.73;8.38;;;4.90;93.20;;;3.74;70.70;96703.84;5053889;28;20414;-81
2022/04/05 04:11:13;;;;;;;11.15;8.13;;;4.90;92.90;;;3.75;71.59;96697.59;5066586;28;20409;-81
2022/04/05 04:13:39;;;;;;;13.23;8.32;;;4.90;93.50;;;3.75;72.32;96708.06;5062974;28;20412;-81
2022/04/05 04:16:07;;;;;;;11.50;7.05;;;4.90;94.00;;;3.72;73.11;96701.44;5049458;28;20417;-82
2022/04/05 04:18:33;;;;;;;10.70;7.65;;;4.90;94.40;;;3.70;73.84;96690.41;5051641;28;20405;-81
2022/04/05 04:20:59;;;;;;;12.73;8.20;;;4.90;94.90;;;3.67;74.35;96700.53;5049493;28;20839;-82
2022/04/05 04:23:24;;;;;;;14.45;8.50;;;4.90;95.30;;;3.63;74.53;96692.31;5052624;28;20439;-88
2022/04/05 04:25:50;;;;;;;16.00;10.00;;;4.80;95.50;;;3.60;75.94;96686.75;5050044;28;20874;-82
2022/04/05 04:28:16;;;;;;;12.95;9.00;;;4.80;96.30;;;3.54;77.04;96690.22;5053056;28;20431;-82
2022/04/05 04:30:42;;;;;;;15.80;9.82;;;4.70;97.00;;;3.44;78.61;96680.31;5057860;28;20429;-87
2022/04/05 04:33:10;;;;;;;14.80;10.48;;;4.60;98.00;;;3.31;80.00;96678.66;5059785;28;20421;-84
2022/04/05 04:35:38;;;;;;;17.47;11.73;;;4.60;98.90;;;3.21;82.23;96680.25;5074659;28;20487;-86
2022/04/05 04:38:06;;;;;;;18.15;12.38;;;4.40;99.90;;;3.09;85.33;96677.56;5091938;28;20394;-87
2022/04/05 04:40:32;;;;;;;21.17;14.07;;;4.30;99.90;;;3.01;86.58;96675.25;5084299;28;20724;-85
2022/04/05 04:42:59;;;;;;;23.42;15.48;;;4.20;99.90;;;2.91;87.91;96670.56;5067142;28;20597;-87
2022/04/05 04:45:27;;;;;;;25.92;17.02;;;4.20;99.90;;;2.89;89.20;96677.00;5068241;28;20403;-88
2022/04/05 04:47:53;;;;;;;27.77;18.15;;;4.10;99.90;;;2.85;89.92;96675.88;5051676;28;20406;-84
2022/04/05 04:50:21;;;;;;;37.83;21.85;;;4.10;99.90;;;2.88;90.80;96670.19;5049488;28;20421;-78
2022/04/05 04:52:47;;;;;;;47.95;24.75;;;4.10;99.90;;;2.87;91.67;96676.44;5049018;28;20420;-75
2022/04/05 04:55:13;;;;;;;52.03;27.73;;;4.10;99.90;;;2.86;92.45;96674.84;5052844;28;20415;-75
2022/04/05 04:57:38;;;;;;;61.03;30.65;;;4.10;99.90;;;2.86;93.09;96682.66;5050620;28;20401;-76
2022/04/05 05:00:06;;;;;;;67.00;33.17;;;4.10;99.90;;;2.79;93.76;96674.91;5049050;28;20766;-76
2022/04/05 05:02:44;;;;;;;85.00;35.40;;;4.10;99.90;;;2.78;94.25;96686.41;5049557;28;20467;-75
2022/04/05 05:05:10;;;;;;;92.63;38.65;;;4.00;99.90;;;2.72;94.73;96682.84;5049773;28;20406;-75
2022/04/05 05:07:37;;;;;;;102.43;40.53;;;4.00;99.90;;;2.73;95.28;96689.66;5053043;28;20456;-76
2022/04/05 05:10:05;;;;;;;106.68;41.53;;;4.00;99.90;;;2.72;95.83;96687.25;5053162;28;20938;-77
2022/04/05 05:12:31;;;;;;;99.50;41.72;;;4.00;99.90;;;2.66;95.99;96686.31;5064650;28;20755;-76
2022/04/05 05:14:58;;;;;;;119.10;44.65;;;3.90;99.90;;;2.67;96.05;96693.16;5053385;28;20399;-77
2022/04/05 05:17:24;;;;;;;122.78;45.72;;;3.90;99.90;;;2.71;96.51;96693.50;5048178;28;20409;-78
2022/04/05 05:19:50;;;;;;;113.25;44.85;;;3.90;99.90;;;2.65;96.87;96705.63;5049518;28;20409;-80
2022/04/05 05:22:16;;;;;;;132.73;47.17;;;3.90;99.90;;;2.69;97.24;96698.97;5053053;28;20778;-79
2022/04/05 05:24:43;;;;;;;126.22;45.80;;;3.90;99.90;;;2.68;97.56;96699.19;5049472;28;20402;-78
2022/04/05 05:27:09;;;;;;;130.82;47.78;;;4.00;99.90;;;2.69;97.80;96696.34;5053845;28;20412;-78
2022/04/05 05:29:34;;;;;;;130.75;47.92;;;3.90;99.90;;;2.62;98.08;96695.63;5050255;28;20417;-80
2022/04/05 05:32:00;;;;;;;153.43;50.77;;;3.90;99.90;;;2.69;98.40;96696.34;5047601;28;20527;-78
2022/04/05 05:34:26;;;;;;;155.65;52.72;;;4.00;99.90;;;2.71;98.71;96699.53;5049671;28;20535;-77
2022/04/05 05:36:52;;;;;;;149.43;50.50;;;4.00;99.90;;;2.77;99.01;96700.50;5053071;28;20940;-76
2022/04/05 05:39:18;;;;;;;135.25;48.05;;;4.00;99.90;;;2.73;99.15;96702.72;5049375;28;20409;-77
2022/04/05 05:41:47;;;;;;;143.13;49.70;;;4.00;99.90;;;2.76;99.39;96708.53;5050766;28;20398;-77
2022/04/05 05:44:13;;;;;;;154.20;51.35;;;4.00;99.90;;;2.70;99.51;96713.63;5053022;28;20409;-76
2022/04/05 05:46:38;;;;;;;135.63;48.35;;;4.00;99.90;;;2.64;99.71;96714.47;5056345;28;20484;-77
2022/04/05 05:49:04;;;;;;;131.50;47.75;;;3.90;99.90;;;2.70;99.76;96721.47;5056381;28;20412;-77
2022/04/05 05:51:30;;;;;;;151.43;51.30;;;4.00;99.90;;;2.70;99.81;96711.00;5052489;28;20406;-77
2022/04/05 05:53:56;;;;;;;148.55;50.92;;;3.90;99.90;;;2.76;100.00;96730.25;5056461;28;20492;-76
2022/04/05 05:56:22;;;;;;;147.07;50.45;;;4.00;99.90;;;2.77;100.00;96718.78;5052521;28;20398;-76
2022/04/05 05:58:51;;;;;;;143.68;49.58;;;4.00;99.90;;;2.74;100.00;96721.81;5051557;28;21068;-77
2022/04/05 06:01:17;;;;;;;148.33;49.23;;;4.00;99.90;;;2.77;100.00;96721.41;5052323;28;20926;-76
2022/04/05 06:03:43;;;;;;;138.55;49.10;;;4.00;99.90;;;2.75;100.00;96727.84;5055905;28;20488;-77
2022/04/05 06:06:09;;;;;;;145.50;51.53;;;4.00;99.90;;;2.76;100.00;96729.44;5052384;28;20459;-76
2022/04/05 06:08:35;;;;;;;138.50;50.15;;;4.00;99.90;;;2.79;100.00;96729.78;5052722;28;20886;-77
2022/04/05 06:11:01;;;;;;;142.35;48.30;;;4.00;99.90;;;2.78;100.00;96730.03;5052021;28;20867;-77
2022/04/05 06:13:27;;;;;;;139.98;50.22;;;4.00;99.90;;;2.77;100.00;96728.44;5052488;28;20401;-77
2022/04/05 06:15:55;;;;;;;146.60;49.93;;;4.00;99.90;;;2.80;100.00;96723.56;5057180;28;20479;-76
2022/04/05 06:18:21;;;;;;;163.70;53.28;;;4.00;99.90;;;2.82;100.00;96734.59;5052406;28;20410;-75
2022/04/05 06:20:46;;;;;;;152.15;49.63;;;4.00;99.90;;;2.87;100.00;96728.69;5051899;28;20409;-75
2022/04/05 06:23:12;;;;;;;137.77;48.35;;;4.10;99.90;;;2.92;100.00;96729.66;5052458;28;20404;-77
2022/04/05 06:25:38;;;;;;;148.40;48.75;;;4.10;99.90;;;2.94;100.00;96737.28;5052246;28;20417;-77
2022/04/05 06:28:06;;;;;;;154.15;49.50;;;4.10;99.90;;;2.90;100.00;96741.34;5052167;28;20405;-77
2022/04/05 06:30:34;;;;;;;144.05;50.22;;;4.20;99.90;;;2.89;100.00;96739.75;5051332;28;20420;-77
2022/04/05 06:33:07;;;;;;;146.10;48.67;;;4.10;99.90;;;2.95;100.00;96736.25;5052242;28;20494;-76
2022/04/05 06:35:34;;;;;;;158.15;49.97;;;4.20;99.90;;;2.97;100.00;96735.03;5052147;28;20405;-76
2022/04/05 06:38:00;;;;;;;147.35;50.03;;;4.20;99.90;;;3.01;100.00;96741.41;5051962;28;20447;-76
2022/04/05 06:40:26;;;;;;;135.18;48.38;;;4.20;99.90;;;2.87;100.00;96737.34;5051489;28;20675;-74
2022/04/05 06:42:52;;;;;;;127.03;46.22;;;4.20;99.90;;;2.95;100.00;96744.09;5051936;28;20463;-77
2022/04/05 06:45:19;;;;;;;143.15;49.55;;;4.20;99.90;;;3.01;100.00;96743.22;5052031;28;20402;-76
2022/04/05 06:47:47;;;;;;;133.93;47.70;;;4.20;99.90;;;2.98;100.00;96734.03;5051590;28;20504;-78
2022/04/05 06:50:17;;;;;;;143.63;48.22;;;4.20;99.90;;;2.96;100.00;96743.09;5051211;28;20924;-76
2022/04/05 06:52:43;;;;;;;144.40;48.05;;;4.20;99.90;;;2.99;100.00;96740.03;5054673;28;20408;-77
2022/04/05 06:55:10;;;;;;;146.73;49.15;;;4.20;99.90;;;3.03;100.00;96739.38;5055064;28;20836;-76
2022/04/05 06:57:37;;;;;;;137.90;47.37;;;4.20;99.90;;;3.03;100.00;96733.34;5050225;28;20489;-77
2022/04/05 07:00:05;;;;;;;124.15;44.45;;;4.20;99.90;;;2.98;100.00;96733.22;5051656;28;20425;-77
2022/04/05 07:02:31;;;;;;;134.73;44.88;;;4.20;99.90;;;3.05;100.00;96733.94;5055222;28;20423;-77
2022/04/05 07:04:56;;;;;;;116.32;42.90;;;4.30;99.90;;;3.11;100.00;96731.25;5056638;28;20750;-76
2022/04/05 07:07:24;;;;;;;127.07;44.20;;;4.30;99.90;;;3.17;100.00;96721.72;5051115;28;20409;-76
2022/04/05 07:09:50;;;;;;;109.35;40.92;;;4.30;99.90;;;3.19;100.00;96722.28;5050990;28;20995;-76
2022/04/05 07:12:16;;;;;;;116.50;42.17;;;4.40;99.90;;;3.23;100.00;96733.13;5052398;28;20413;-76
2022/04/05 07:14:42;;;;;;;114.65;40.50;;;4.40;99.90;;;3.25;100.00;96718.00;5057212;28;20914;-75
2022/04/05 07:17:07;;;;;;;123.63;42.10;;;4.50;99.90;;;3.29;100.00;96724.41;5051996;28;20401;-76
2022/04/05 07:19:33;;;;;;;120.70;41.65;;;4.50;99.90;;;3.29;100.00;96725.19;5051126;28;20576;-76
2022/04/05 07:21:59;;;;;;;118.67;40.83;;;4.50;99.90;;;3.30;100.00;96723.38;5050773;28;20402;-76
2022/04/05 07:24:27;;;;;;;114.63;40.38;;;4.50;99.90;;;3.37;100.00;96727.50;5051002;28;20401;-75
2022/04/05 07:26:54;;;;;;;93.50;37.30;;;4.60;99.90;;;3.34;100.00;96732.38;5048348;28;20397;-75
2022/04/05 07:29:20;;;;;;;99.47;37.92;;;4.50;99.90;;;3.37;100.00;96732.75;5051567;28;20447;-75
2022/04/05 07:31:46;;;;;;;97.15;36.47;;;4.60;99.90;;;3.35;100.00;96726.91;5049706;28;20514;-77
2022/04/05 07:34:11;;;;;;;94.05;36.65;;;4.50;99.90;;;3.42;100.00;96722.41;5044621;28;20404;-78
2022/04/05 07:36:38;;;;;;;92.70;35.42;;;4.60;99.90;;;3.45;100.00;96716.75;5052286;28;20499;-77
2022/04/05 07:39:04;;;;;;;72.00;30.42;;;4.60;99.90;;;3.40;100.00;96710.56;5050907;28;20712;-76
2022/04/05 07:41:31;;;;;;;87.75;33.70;;;4.60;99.90;;;3.57;100.00;96718.56;5051356;28;20642;-75
2022/04/05 07:43:57;;;;;;;87.00;32.95;;;4.70;99.90;;;3.61;100.00;96715.28;5050735;28;20898;-76
2022/04/05 07:46:23;;;;;;;88.57;31.83;;;4.70;99.90;;;3.70;100.00;96727.03;5053356;28;20504;-76
2022/04/05 07:48:49;;;;;;;89.70;32.15;;;4.80;99.90;;;3.75;100.00;96726.38;5050543;28;20397;-76
2022/04/05 07:51:16;;;;;;;78.10;29.95;;;4.90;99.90;;;3.78;100.00;96728.53;5052035;28;20460;-76
2022/04/05 07:53:42;;;;;;;78.00;29.73;;;4.90;99.90;;;3.85;100.00;96722.19;5058529;28;20452;-76
2022/04/05 07:56:12;;;;;;;79.32;28.63;;;5.00;99.90;;;3.97;100.00;96718.81;5051222;28;20410;-76
2022/04/05 07:58:40;;;;;;;76.30;29.52;;;5.10;99.90;;;4.00;100.00;96727.00;5054103;28;20506;-76
2022/04/05 08:01:09;;;;;;;78.55;29.10;;;5.20;99.90;;;4.08;100.00;96725.84;5045500;28;20425;-76
2022/04/05 08:03:35;;;;;;;72.82;27.77;;;5.20;99.90;;;4.15;100.00;96723.94;5049591;28;20814;-76
2022/04/05 08:06:01;;;;;;;67.80;26.27;;;5.30;99.90;;;4.36;100.00;96727.84;5050418;28;20456;-75
2022/04/05 08:08:27;;;;;;;52.00;22.80;;;5.40;99.90;;;4.36;100.00;96723.38;5050469;28;20409;-77
2022/04/05 08:10:53;;;;;;;44.30;21.08;;;5.50;99.90;;;4.49;100.00;96725.78;5049900;28;20413;-84
2022/04/05 08:13:18;;;;;;;58.20;22.00;;;5.60;99.90;;;4.58;100.00;96721.81;5052014;28;20401;-80
2022/04/05 08:15:46;;;;;;;46.00;20.13;;;5.70;99.90;;;4.82;100.00;96727.00;5050218;28;20729;-78
2022/04/05 08:18:13;;;;;;;46.97;20.20;;;5.90;99.90;;;4.94;100.00;96735.66;5050349;28;20451;-78
2022/04/05 08:20:41;;;;;;;42.78;18.90;;;6.00;99.90;;;5.04;100.00;96739.25;5049820;28;20968;-79
2022/04/05 08:23:09;;;;;;;37.83;17.50;;;6.10;99.90;;;5.24;100.00;96741.53;5050037;28;20486;-79
2022/04/05 08:25:35;;;;;;;38.15;16.40;;;6.30;99.90;;;5.22;100.00;96737.53;5055763;28;20395;-79
2022/04/05 08:28:02;;;;;;;38.07;16.70;;;6.40;99.90;;;5.16;100.00;96747.13;5056818;28;20514;-80
2022/04/05 08:30:29;;;;;;;37.90;16.33;;;6.30;99.90;;;5.12;100.00;96745.97;5060142;28;20422;-83
2022/04/05 08:32:56;;;;;;;36.50;17.00;;;6.30;99.90;;;5.15;100.00;96750.78;5067660;28;20483;-81
2022/04/05 08:35:23;;;;;;;39.40;16.45;;;6.30;99.90;;;5.13;100.00;96752.81;5056538;28;20441;-80
2022/04/05 08:37:51;;;;;;;41.28;16.42;;;6.20;99.90;;;5.23;100.00;96753.03;5049805;28;20717;-80
2022/04/05 08:40:21;;;;;;;40.25;17.10;;;6.30;99.90;;;5.26;100.00;96754.41;5049694;28;20878;-82
2022/04/05 08:42:49;;;;;;;39.67;15.75;;;6.40;99.90;;;5.23;100.00;96753.03;5058107;28;20409;-83
2022/04/05 08:45:18;;;;;;;34.33;15.70;;;6.30;99.90;;;5.30;100.00;96760.78;5048898;28;20405;-83
2022/04/05 08:47:47;;;;;;;31.27;15.05;;;6.40;99.90;;;5.28;100.00;96758.38;5049021;28;20401;-80
2022/04/05 08:50:16;;;;;;;31.63;14.75;;;6.30;99.90;;;5.38;100.00;96761.22;5049266;28;20417;-81
2022/04/05 08:52:42;;;;;;;29.08;14.00;;;6.50;99.90;;;5.42;100.00;96756.28;5050037;28;20404;-81
2022/04/05 08:55:08;;;;;;;29.25;13.10;;;6.50;99.90;;;5.47;100.00;96763.47;5050037;28;20399;-82
2022/04/05 08:57:34;;;;;;;27.02;13.43;;;6.50;99.90;;;5.68;100.00;96757.56;5049816;28;20401;-82
2022/04/05 09:00:01;;;;;;;25.33;11.73;;;6.70;99.90;;;5.89;100.00;96754.28;5049958;28;20408;-82
2022/04/05 09:02:28;;;;;;;21.27;10.75;;;6.90;99.90;;;5.98;100.00;96746.81;5049365;28;20405;-82
2022/04/05 09:04:54;;;;;;;18.92;10.00;;;7.10;99.90;;;6.30;100.00;96758.41;5050064;28;20984;-82
2022/04/05 09:07:24;;;;;;;12.45;8.02;;;7.30;99.90;;;6.31;100.00;96744.22;5049848;28;20414;-83
2022/04/05 09:10:09;;;;;;;18.48;8.45;;;7.40;99.90;;;6.30;100.00;96744.47;5049857;28;20768;-84
2022/04/05 09:12:44;;;;;;;12.48;8.00;;;7.30;99.90;;;6.24;100.00;96748.06;5049922;28;20801;-83
2022/04/05 09:15:23;;;;;;;13.55;8.40;;;7.30;99.90;;;6.26;100.00;96752.00;5050691;28;20442;-82
2022/04/05 09:17:50;;;;;;;13.68;8.00;;;7.40;99.90;;;6.19;100.00;96756.63;5053424;28;20465;-89
2022/04/05 09:20:18;;;;;;;15.15;8.45;;;7.20;99.90;;;6.29;100.00;96756.00;5056108;28;20981;-84
2022/04/05 09:22:46;;;;;;;16.80;8.73;;;7.30;99.90;;;6.30;100.00;96752.34;5058882;28;20466;-86
2022/04/05 09:25:14;;;;;;;16.77;8.68;;;7.30;99.90;;;6.35;100.00;96760.28;5045479;28;20401;-86
2022/04/05 09:27:46;;;;;;;11.23;7.90;;;7.40;99.90;;;6.37;100.00;96755.59;5061468;28;20874;-88
2022/04/05 09:30:14;;;;;;;12.73;7.53;;;7.40;99.90;;;6.46;99.93;96759.44;5046309;28;20413;-85
2022/04/05 09:32:42;;;;;;;13.43;7.53;;;7.50;99.90;;;6.48;100.00;96760.75;5053813;28;20902;-89
2022/04/05 09:35:09;;;;;;;13.43;8.25;;;7.50;99.90;;;6.44;100.00;96772.81;5053625;28;20467;-83
2022/04/05 09:37:38;;;;;;;13.85;8.45;;;7.50;99.90;;;6.46;100.00;96767.31;5053401;28;20397;-82
2022/04/05 09:40:24;;;;;;;12.25;7.88;;;7.50;99.90;;;6.43;99.44;96778.31;5053275;28;20453;-85
2022/04/05 09:43:03;;;;;;;16.13;8.45;;;7.50;99.90;;;6.34;98.96;96770.00;5033164;28;20426;-85
2022/04/05 09:45:47;;;;;;;14.50;8.73;;;7.50;99.90;;;6.33;98.50;96776.31;5033089;28;20444;-86
2022/04/05 09:48:15;;;;;;;19.30;8.83;;;7.40;99.90;;;6.23;98.73;96770.91;5033277;28;20423;-86
2022/04/05 09:51:03;;;;;;;14.60;8.82;;;7.30;99.90;;;6.25;98.57;96775.91;5031747;28;20445;-85
2022/04/05 09:53:40;;;;;;;28.35;10.15;;;7.30;99.90;;;6.29;98.97;96779.66;5033297;28;20402;-86
2022/04/05 09:58:50;;;;;;;19.60;9.80;;;7.20;99.90;;;6.20;99.31;96782.69;5091499;28;20976;-87
2022/04/05 10:01:19;;;;;;;21.50;11.00;;;7.30;99.90;;;6.15;99.76;96777.34;5072538;28;20471;-86
2022/04/05 10:03:59;;;;;;;19.73;10.38;;;7.20;99.90;;;5.94;99.50;96779.88;5073295;28;20799;-85
2022/04/05 10:06:25;;;;;;;27.38;12.80;;;7.00;99.90;;;5.95;99.60;96790.13;5077701;28;20410;-85
2022/04/05 10:08:55;;;;;;;24.10;12.33;;;7.10;99.90;;;6.04;99.90;96785.28;5097385;28;20420;-85
2022/04/05 10:11:24;;;;;;;24.43;11.87;;;7.10;99.90;;;6.11;100.00;96785.91;5094645;28;20511;-86
2022/04/05 10:13:52;;;;;;;24.70;11.90;;;7.20;99.90;;;6.08;100.00;96789.03;5075665;28;20406;-87
2022/04/05 10:16:20;;;;;;;24.73;12.35;;;7.20;99.90;;;6.12;100.00;96790.16;5092758;28;20411;-88
2022/04/05 10:18:48;;;;;;;26.85;12.45;;;7.20;99.90;;;6.08;100.00;96789.03;5093231;28;20405;-87
2022/04/05 10:21:16;;;;;;;21.50;11.77;;;7.20;99.90;;;6.11;100.00;96791.19;5074225;28;20392;-84